Time;durP1;ratioP1;P1;durP2;ratioP2;P2;SDS_P1;SDS_P2;PMS_P1;PMS_P2;Temp;Humidity;BMP_temperature;BMP_pressure;BME280_temperature;BME280_humidity;BME280_pressure;Samples;Min_cycle;Max_cycle;Signal;HPM_P1;HPM_P2
2022/04/28 00:01:56;;;;;;;;;34.50;31.50;;;;;-145.45;100.00;57426.63;5071678;27;45339;-84
2022/04/28 00:04:22;;;;;;;;;30.25;29.75;;;;;-145.45;100.00;57426.63;5071334;28;46275;-83
2022/04/28 00:06:47;;;;;;;;;32.25;30.50;;;;;-145.45;100.00;57426.63;5070716;27;45453;-85
2022/04/28 00:09:13;;;;;;;;;33.25;31.00;;;;;-145.45;100.00;57426.63;5073613;28;45332;-83
2022/04/28 00:11:38;;;;;;;;;35.25;31.50;;;;;-145.45;100.00;57426.63;5082502;28;45323;-85
2022/04/28 00:14:03;;;;;;;;;35.75;31.75;;;;;-145.45;100.00;57426.63;5080141;28;45383;-84
2022/04/28 00:16:30;;;;;;;;;36.50;32.75;;;;;-145.45;100.00;57426.63;5082559;28;45342;-84
2022/04/28 00:18:55;;;;;;;;;34.75;31.75;;;;;-145.45;100.00;57426.63;5089572;27;45310;-83
2022/04/28 00:21:21;;;;;;;;;33.50;31.75;;;;;-145.45;100.00;57426.63;5091403;27;46250;-82
2022/04/28 00:23:46;;;;;;;;;42.00;35.00;;;;;-145.45;100.00;57426.63;5064801;28;46543;-81
2022/04/28 00:26:12;;;;;;;;;35.00;31.00;;;;;-145.45;100.00;57426.63;5083219;28;45240;-81
2022/04/28 00:28:37;;;;;;;;;41.50;33.75;;;;;-145.45;100.00;57426.63;5082491;27;45273;-83
2022/04/28 00:31:03;;;;;;;;;36.25;31.25;;;;;-145.45;100.00;57426.63;5080916;27;45264;-80
2022/04/28 00:33:28;;;;;;;;;30.75;26.00;;;;;-145.45;100.00;57426.63;5069874;28;46090;-82
2022/04/28 00:35:54;;;;;;;;;31.50;28.25;;;;;-145.45;100.00;57426.63;5078326;28;45220;-82
2022/04/28 00:38:20;;;;;;;;;34.25;32.50;;;;;-145.45;100.00;57426.63;5069761;27;45287;-82
2022/04/28 00:40:45;;;;;;;;;40.75;31.75;;;;;-145.45;100.00;57426.63;5078945;28;45150;-81
2022/04/28 00:43:19;;;;;;;;;39.75;32.75;;;;;-145.45;100.00;57426.63;5071981;28;45269;-81
2022/04/28 00:45:49;;;;;;;;;32.25;26.00;;;;;-145.45;100.00;57426.63;5076343;28;45330;-83
2022/04/28 00:51:02;;;;;;;;;37.25;33.00;;;;;-145.45;100.00;57426.63;5081096;28;45330;-81
2022/04/28 00:53:35;;;;;;;;;30.25;30.25;;;;;-145.45;100.00;57426.63;5069371;27;47341;-81
2022/04/28 00:56:01;;;;;;;;;31.75;30.25;;;;;-145.45;100.00;57426.63;5083165;28;45304;-81
2022/04/28 00:58:27;;;;;;;;;27.00;25.75;;;;;-145.45;100.00;57426.63;5082684;27;45248;-83
2022/04/28 01:00:53;;;;;;;;;32.50;29.50;;;;;-145.45;100.00;57426.63;5077090;28;45221;-83
2022/04/28 01:03:20;;;;;;;;;35.50;29.75;;;;;-145.45;100.00;57426.63;5068623;28;48005;-82
2022/04/28 01:05:46;;;;;;;;;32.75;30.75;;;;;-145.45;100.00;57426.63;5082696;28;45414;-82
2022/04/28 01:08:11;;;;;;;;;34.50;31.25;;;;;-145.45;100.00;57426.63;5069863;27;45362;-82
2022/04/28 01:10:37;;;;;;;;;32.75;26.50;;;;;-145.45;100.00;57426.63;5083022;27;45306;-83
2022/04/28 01:13:03;;;;;;;;;31.00;28.50;;;;;-145.45;100.00;57426.63;5068463;28;47246;-83
2022/04/28 01:15:28;;;;;;;;;27.50;27.00;;;;;-145.45;100.00;57426.63;5082467;28;45431;-82
2022/04/28 01:17:54;;;;;;;;;33.50;26.00;;;;;-145.45;100.00;57426.63;5067001;27;44726;-84
2022/04/28 01:20:19;;;;;;;;;34.50;29.50;;;;;-145.45;100.00;57426.63;5076223;28;45374;-83
2022/04/28 01:22:44;;;;;;;;;35.25;26.75;;;;;-145.45;100.00;57426.63;5082747;27;45444;-83
2022/04/28 01:25:11;;;;;;;;;36.00;29.75;;;;;-145.45;100.00;57426.63;5083426;28;45371;-83
2022/04/28 01:27:37;;;;;;;;;30.00;26.25;;;;;-145.45;100.00;57426.63;5072124;28;45307;-82
2022/04/28 01:30:10;;;;;;;;;34.75;28.50;;;;;-145.45;100.00;57426.63;5085862;27;45225;-83
2022/04/28 01:32:35;;;;;;;;;33.25;28.50;;;;;-145.45;100.00;57426.63;5082905;27;47050;-83
2022/04/28 01:35:00;;;;;;;;;28.50;26.75;;;;;-145.45;100.00;57426.63;5081740;28;45231;-83
2022/04/28 01:37:26;;;;;;;;;27.50;26.50;;;;;-145.45;100.00;57426.63;5079046;28;44794;-83
2022/04/28 01:39:53;;;;;;;;;33.25;28.00;;;;;-145.45;100.00;57426.63;5077884;28;45879;-84
2022/04/28 01:42:18;;;;;;;;;32.50;27.00;;;;;-145.45;100.00;57426.63;5080529;27;45298;-82
2022/04/28 01:44:44;;;;;;;;;30.25;28.50;;;;;-145.45;100.00;57426.63;5075515;28;45307;-83
2022/04/28 01:47:09;;;;;;;;;30.75;27.75;;;;;-145.45;100.00;57426.63;5084120;27;45185;-85
2022/04/28 01:49:35;;;;;;;;;31.00;28.00;;;;;-145.45;100.00;57426.63;5076817;28;45874;-84
2022/04/28 01:54:59;;;;;;;;;31.00;28.75;;;;;-145.45;100.00;57426.63;5078893;28;45419;-85
2022/04/28 01:57:27;;;;;;;;;30.50;28.25;;;;;-145.45;100.00;57426.63;5083298;28;45253;-85
2022/04/28 01:59:52;;;;;;;;;33.00;29.50;;;;;-145.45;100.00;57426.63;5085086;28;45474;-83
2022/04/28 02:02:18;;;;;;;;;23.50;22.00;;;;;-145.45;100.00;57426.63;5072846;28;46084;-85
2022/04/28 02:04:43;;;;;;;;;32.00;27.00;;;;;-145.45;100.00;57426.63;5078213;28;45078;-84
2022/04/28 02:07:08;;;;;;;;;41.50;31.50;;;;;-145.45;100.00;57426.63;5078170;27;45401;-84
2022/04/28 02:09:34;;;;;;;;;38.50;33.50;;;;;-145.45;100.00;57426.63;5074968;28;45221;-84
2022/04/28 02:11:59;;;;;;;;;33.25;30.00;;;;;-145.45;100.00;57426.63;5079044;27;45561;-83
2022/04/28 02:14:25;;;;;;;;;32.50;29.25;;;;;-145.45;100.00;57426.63;5072720;28;56403;-83
2022/04/28 02:16:50;;;;;;;;;30.00;27.00;;;;;-145.45;100.00;57426.63;5085848;27;45322;-82
2022/04/28 02:19:16;;;;;;;;;28.75;23.25;;;;;-145.45;100.00;57426.63;5084257;27;48291;-85
2022/04/28 02:21:41;;;;;;;;;31.75;27.50;;;;;-145.45;100.00;57426.63;5085520;27;45969;-83
2022/04/28 02:24:07;;;;;;;;;29.50;29.50;;;;;-145.45;100.00;57426.63;5074692;28;45408;-83
2022/04/28 02:26:32;;;;;;;;;33.50;30.25;;;;;-145.45;100.00;57426.63;5085742;27;45293;-83
2022/04/28 02:28:58;;;;;;;;;29.00;25.00;;;;;-145.45;100.00;57426.63;5085021;27;45302;-83
2022/04/28 02:31:23;;;;;;;;;33.25;31.25;;;;;-145.45;100.00;57426.63;5080727;27;46273;-84
2022/04/28 02:33:48;;;;;;;;;31.25;27.50;;;;;-145.45;100.00;57426.63;5084920;27;45300;-84
2022/04/28 02:36:14;;;;;;;;;29.75;28.00;;;;;-145.45;100.00;57426.63;5065145;27;45310;-84
2022/04/28 02:38:39;;;;;;;;;31.75;29.00;;;;;-145.45;100.00;57426.63;5077949;28;45246;-84
2022/04/28 02:41:04;;;;;;;;;30.75;27.25;;;;;-145.45;100.00;57426.63;5084175;27;46579;-85
2022/04/28 02:43:30;;;;;;;;;30.00;27.00;;;;;-145.45;100.00;57426.63;5084143;28;45298;-83
2022/04/28 02:45:55;;;;;;;;;33.00;29.50;;;;;-145.45;100.00;57426.63;5084020;28;45354;-84
2022/04/28 02:48:21;;;;;;;;;30.75;28.00;;;;;-145.45;100.00;57426.63;5084165;27;45532;-83
2022/04/28 02:50:46;;;;;;;;;32.25;30.00;;;;;-145.45;100.00;57426.63;5082731;27;45335;-85
2022/04/28 02:53:11;;;;;;;;;27.75;23.00;;;;;-145.45;100.00;57426.63;5070751;27;45205;-83
2022/04/28 02:55:39;;;;;;;;;31.75;26.25;;;;;-145.45;100.00;57426.63;5082397;28;45251;-85
2022/04/28 02:58:05;;;;;;;;;36.25;32.00;;;;;-145.45;100.00;57426.63;5086533;27;45280;-84
2022/04/28 03:00:30;;;;;;;;;29.50;28.50;;;;;-145.45;100.00;57426.63;5081101;27;45193;-83
2022/04/28 03:02:56;;;;;;;;;34.50;28.25;;;;;-145.45;100.00;57426.63;5073982;28;45454;-83
2022/04/28 03:05:21;;;;;;;;;28.75;26.00;;;;;-145.45;100.00;57426.63;5083105;28;45396;-85
2022/04/28 03:10:49;;;;;;;;;32.00;29.75;;;;;-145.45;100.00;57426.63;5084595;28;45331;-83
2022/04/28 03:13:15;;;;;;;;;35.50;31.75;;;;;-145.45;100.00;57426.63;5063473;28;45260;-85
2022/04/28 03:15:41;;;;;;;;;34.25;31.50;;;;;-145.45;100.00;57426.63;5084228;28;44899;-85
2022/04/28 03:18:06;;;;;;;;;38.75;31.75;;;;;-145.45;100.00;57426.63;5085595;27;45359;-85
2022/04/28 03:20:31;;;;;;;;;30.50;27.50;;;;;-145.45;100.00;57426.63;5086408;27;45386;-83
2022/04/28 03:22:57;;;;;;;;;25.00;21.00;;;;;-145.45;100.00;57426.63;5079277;28;45256;-83
2022/04/28 03:25:22;;;;;;;;;37.25;30.25;;;;;-145.45;100.00;57426.63;5078202;27;45492;-86
2022/04/28 03:27:48;;;;;;;;;25.50;23.50;;;;;-145.45;100.00;57426.63;5071959;27;45293;-83
2022/04/28 03:30:13;;;;;;;;;34.00;28.25;;;;;-145.45;100.00;57426.63;5074529;28;47061;-83
2022/04/28 03:32:38;;;;;;;;;34.50;31.00;;;;;-145.45;100.00;57426.63;5078098;28;45370;-85
2022/04/28 03:35:04;;;;;;;;;32.75;28.75;;;;;-145.45;100.00;57426.63;5076558;28;45319;-85
2022/04/28 03:37:29;;;;;;;;;33.00;29.50;;;;;-145.45;100.00;57426.63;5080969;27;45430;-84
2022/04/28 03:39:55;;;;;;;;;37.50;31.25;;;;;-145.45;100.00;57426.63;5076751;28;45393;-84
2022/04/28 03:42:20;;;;;;;;;27.25;25.50;;;;;-145.45;100.00;57426.63;5085469;27;45385;-84
2022/04/28 03:44:46;;;;;;;;;32.75;30.75;;;;;-145.45;100.00;57426.63;5084970;27;45591;-82
2022/04/28 03:47:11;;;;;;;;;39.25;31.00;;;;;-145.45;100.00;57426.63;5075851;27;45249;-84
2022/04/28 03:49:36;;;;;;;;;34.25;32.25;;;;;-145.45;100.00;57426.63;5077078;28;48412;-83
2022/04/28 03:52:03;;;;;;;;;39.00;34.00;;;;;-145.45;100.00;57426.63;5080124;27;45248;-85
2022/04/28 03:54:28;;;;;;;;;37.00;31.25;;;;;-145.45;100.00;57426.63;5084040;28;44670;-86
2022/04/28 03:56:53;;;;;;;;;38.00;32.50;;;;;-145.45;100.00;57426.63;5088631;27;45354;-85
2022/04/28 03:59:19;;;;;;;;;34.25;33.25;;;;;-145.45;100.00;57426.63;5088026;27;46099;-85
2022/04/28 04:01:44;;;;;;;;;31.75;28.00;;;;;-145.45;100.00;57426.63;5088483;28;45446;-86
2022/04/28 04:04:10;;;;;;;;;43.00;34.50;;;;;-145.45;100.00;57426.63;5087966;27;44789;-85
2022/04/28 04:06:35;;;;;;;;;31.25;28.75;;;;;-145.45;100.00;57426.63;5086153;27;45283;-86
2022/04/28 04:09:00;;;;;;;;;37.50;32.00;;;;;-145.45;100.00;57426.63;5080494;28;47187;-85
2022/04/28 04:11:26;;;;;;;;;36.00;33.25;;;;;-145.45;100.00;57426.63;5084997;28;44686;-86
2022/04/28 04:13:51;;;;;;;;;33.50;31.50;;;;;-145.45;100.00;57426.63;5080534;27;45355;-84
2022/04/28 04:16:16;;;;;;;;;34.50;34.00;;;;;-145.45;100.00;57426.63;5084107;28;45999;-85
2022/04/28 04:18:42;;;;;;;;;38.75;31.25;;;;;-145.45;100.00;57426.63;5084620;27;46424;-86
2022/04/28 04:21:07;;;;;;;;;37.25;32.25;;;;;-145.45;100.00;57426.63;5078181;28;45260;-85
2022/04/28 04:23:33;;;;;;;;;33.75;30.50;;;;;-145.45;100.00;57426.63;5085468;28;45370;-86
2022/04/28 04:25:59;;;;;;;;;36.75;30.50;;;;;-145.45;100.00;57426.63;5085385;27;45440;-86
2022/04/28 04:28:24;;;;;;;;;40.00;32.25;;;;;-145.45;100.00;57426.63;5065846;28;45323;-86
2022/04/28 04:33:35;;;;;;;;;35.25;33.75;;;;;-145.45;100.00;57426.63;5086975;28;45487;-84
2022/04/28 04:36:01;;;;;;;;;33.75;30.25;;;;;-145.45;100.00;57426.63;5082117;28;45461;-82
2022/04/28 04:38:26;;;;;;;;;34.25;29.75;;;;;-145.45;100.00;57426.63;5071313;28;47271;-82
2022/04/28 04:40:51;;;;;;;;;35.50;30.75;;;;;-145.45;100.00;57426.63;5075488;28;45234;-84
2022/04/28 04:43:17;;;;;;;;;40.50;34.50;;;;;-145.45;100.00;57426.63;5084245;27;45427;-85
2022/04/28 04:45:43;;;;;;;;;31.50;30.25;;;;;-145.45;100.00;57426.63;5080347;27;45272;-80
2022/04/28 04:48:12;;;;;;;;;33.25;29.00;;;;;-145.45;100.00;57426.63;5074671;27;46059;-83
2022/04/28 04:50:39;;;;;;;;;32.25;27.75;;;;;-145.45;100.00;57426.63;5083988;28;45725;-86
2022/04/28 04:53:05;;;;;;;;;39.25;33.75;;;;;-145.45;100.00;57426.63;5085751;27;44769;-86
2022/04/28 04:55:36;;;;;;;;;34.00;31.75;;;;;-145.45;100.00;57426.63;5075182;28;46329;-82
2022/04/28 04:58:02;;;;;;;;;35.00;32.25;;;;;-145.45;100.00;57426.63;5079243;28;47279;-82
2022/04/28 05:00:27;;;;;;;;;37.00;33.25;;;;;-145.45;100.00;57426.63;5082877;28;45386;-83
2022/04/28 05:02:52;;;;;;;;;40.75;33.50;;;;;-145.45;100.00;57426.63;5075861;28;45300;-84
2022/04/28 05:05:18;;;;;;;;;33.00;27.50;;;;;-145.45;100.00;57426.63;5081829;27;45756;-83
2022/04/28 05:07:43;;;;;;;;;39.00;36.25;;;;;-145.45;100.00;57426.63;5073919;27;45891;-80
2022/04/28 05:10:09;;;;;;;;;36.25;33.50;;;;;-145.45;100.00;57426.63;5075092;28;45355;-80
2022/04/28 05:12:34;;;;;;;;;48.50;38.00;;;;;-145.45;100.00;57426.63;5081860;28;45408;-78
2022/04/28 05:15:00;;;;;;;;;48.50;36.25;;;;;-145.45;100.00;57426.63;5080170;27;45513;-79
2022/04/28 05:17:25;;;;;;;;;45.00;36.00;;;;;-145.45;100.00;57426.63;5068953;28;47553;-78
2022/04/28 05:19:51;;;;;;;;;37.75;32.75;;;;;-145.45;100.00;57426.63;5080616;28;45426;-82
2022/04/28 05:22:16;;;;;;;;;38.00;34.50;;;;;-145.45;100.00;57426.63;5082672;28;45338;-84
2022/04/28 05:24:42;;;;;;;;;43.25;36.25;;;;;-145.45;100.00;57426.63;5077193;27;45164;-80
2022/04/28 05:27:07;;;;;;;;;41.25;33.25;;;;;-145.45;100.00;57426.63;5083737;27;45382;-80
2022/04/28 05:29:32;;;;;;;;;49.25;36.25;;;;;-145.45;100.00;57426.63;5076854;28;45185;-77
2022/04/28 05:31:58;;;;;;;;;41.75;35.75;;;;;-145.45;100.00;57426.63;5070766;28;45573;-81
2022/04/28 05:34:23;;;;;;;;;40.75;35.75;;;;;-145.45;100.00;57426.63;5076876;28;45558;-82
2022/04/28 05:36:50;;;;;;;;;40.00;36.50;;;;;-145.45;100.00;57426.63;5081822;27;46313;-81
2022/04/28 05:39:16;;;;;;;;;43.25;35.50;;;;;-145.45;100.00;57426.63;5082410;27;44769;-87
2022/04/28 05:41:42;;;;;;;;;34.50;31.00;;;;;-145.45;100.00;57426.63;5084872;27;45414;-85
2022/04/28 05:46:53;;;;;;;;;46.00;37.25;;;;;-145.45;100.00;57426.63;5083003;28;45768;-86
2022/04/28 05:49:18;;;;;;;;;52.75;37.25;;;;;-145.45;100.00;57426.63;5084586;27;45306;-88
2022/04/28 05:51:44;;;;;;;;;49.00;37.50;;;;;-145.45;100.00;57426.63;5076001;27;45413;-84
2022/04/28 05:54:09;;;;;;;;;46.75;37.50;;;;;-145.45;100.00;57426.63;5074380;28;45267;-81
2022/04/28 05:56:35;;;;;;;;;47.75;38.25;;;;;-145.45;100.00;57426.63;5069494;27;45406;-85
2022/04/28 05:59:01;;;;;;;;;43.00;35.50;;;;;-145.45;100.00;57426.63;5065032;28;45300;-82
2022/04/28 06:01:28;;;;;;;;;39.25;34.00;;;;;-145.45;100.00;57426.63;5071767;28;45287;-84
2022/04/28 06:03:53;;;;;;;;;40.75;34.00;;;;;-145.45;100.00;57426.63;5082838;27;45476;-83
2022/04/28 06:06:19;;;;;;;;;45.00;37.50;;;;;-145.45;100.00;57426.63;5073676;27;45197;-86
2022/04/28 06:08:44;;;;;;;;;34.25;33.75;;;;;-145.45;100.00;57426.63;5069992;27;45261;-83
2022/04/28 06:11:09;;;;;;;;;40.50;36.50;;;;;-145.45;100.00;57426.63;5080920;27;45380;-83
2022/04/28 06:13:37;;;;;;;;;41.75;36.50;;;;;-145.45;100.00;57426.63;5064593;28;45196;-85
2022/04/28 06:16:03;;;;;;;;;37.75;35.25;;;;;-145.45;100.00;57426.63;5081422;28;45445;-82
2022/04/28 06:18:28;;;;;;;;;48.50;35.75;;;;;-145.45;100.00;57426.63;5064981;28;45458;-82
2022/04/28 06:20:54;;;;;;;;;43.50;34.00;;;;;-145.45;100.00;57426.63;5083644;27;45248;-83
2022/04/28 06:23:19;;;;;;;;;38.25;32.25;;;;;-145.45;100.00;57426.63;5064145;28;45287;-86
2022/04/28 06:25:45;;;;;;;;;45.50;37.00;;;;;-145.45;100.00;57426.63;5082902;28;45444;-80
2022/04/28 06:28:10;;;;;;;;;36.50;34.25;;;;;-145.45;100.00;57426.63;5075203;28;45743;-84
2022/04/28 06:30:36;;;;;;;;;43.50;37.00;;;;;-145.45;100.00;57426.63;5079631;28;45284;-85
2022/04/28 06:33:02;;;;;;;;;46.00;39.00;;;;;-145.45;100.00;57426.63;5067573;28;45312;-86
2022/04/28 06:35:27;;;;;;;;;42.25;36.00;;;;;-145.45;100.00;57426.63;5084079;28;45191;-86
2022/04/28 06:37:53;;;;;;;;;43.50;38.50;;;;;-145.45;100.00;57426.63;5088499;27;44646;-86
2022/04/28 06:40:18;;;;;;;;;46.75;36.75;;;;;-145.45;100.00;57426.63;5086276;28;44803;-85
2022/04/28 06:42:44;;;;;;;;;47.50;39.00;;;;;-145.45;100.00;57426.63;5076789;27;45566;-80
2022/04/28 06:45:12;;;;;;;;;45.75;36.50;;;;;-145.45;100.00;57426.63;5076122;28;47395;-81
2022/04/28 06:47:39;;;;;;;;;37.25;33.00;;;;;-145.45;100.00;57426.63;5088356;27;45704;-79
2022/04/28 06:50:04;;;;;;;;;45.00;35.25;;;;;-145.45;100.00;57426.63;5071210;28;47370;-79
2022/04/28 06:52:30;;;;;;;;;35.00;31.00;;;;;-145.45;100.00;57426.63;5074639;27;45665;-80
2022/04/28 06:54:56;;;;;;;;;49.75;38.50;;;;;-145.45;100.00;57426.63;5074995;28;45538;-82
2022/04/28 06:57:21;;;;;;;;;43.00;36.00;;;;;-145.45;100.00;57426.63;5079093;28;45533;-80
2022/04/28 06:59:46;;;;;;;;;37.25;33.25;;;;;-145.45;100.00;57426.63;5073315;28;45516;-80
2022/04/28 07:02:12;;;;;;;;;49.00;39.25;;;;;-145.45;100.00;57426.63;5071541;28;45287;-78
2022/04/28 07:04:37;;;;;;;;;36.00;32.00;;;;;-145.45;100.00;57426.63;5071557;28;45272;-80
2022/04/28 07:07:03;;;;;;;;;43.25;37.25;;;;;-145.45;100.00;57426.63;5065986;28;45317;-81
2022/04/28 07:09:28;;;;;;;;;49.75;37.25;;;;;-145.45;100.00;57426.63;5068800;28;44827;-81
2022/04/28 07:11:54;;;;;;;;;38.75;35.25;;;;;-145.45;100.00;57426.63;5081257;28;46909;-76
2022/04/28 07:14:19;;;;;;;;;50.00;39.25;;;;;-145.45;100.00;57426.63;5073933;27;45481;-78
2022/04/28 07:16:45;;;;;;;;;38.25;34.50;;;;;-145.45;100.00;57426.63;5081547;27;45238;-82
2022/04/28 07:19:10;;;;;;;;;48.00;37.25;;;;;-145.45;100.00;57426.63;5071591;28;45312;-75
2022/04/28 07:21:35;;;;;;;;;44.50;37.25;;;;;-145.45;100.00;57426.63;5074326;27;45564;-82
2022/04/28 07:24:01;;;;;;;;;41.50;35.25;;;;;-145.45;100.00;57426.63;5066729;28;45248;-78
2022/04/28 07:26:28;;;;;;;;;41.00;36.25;;;;;-145.45;100.00;57426.63;5079750;28;45334;-82
2022/04/28 07:28:53;;;;;;;;;47.00;39.75;;;;;-145.45;100.00;57426.63;5072857;27;45321;-85
2022/04/28 07:31:19;;;;;;;;;44.25;35.25;;;;;-145.45;100.00;57426.63;5065029;28;46801;-77
2022/04/28 07:33:44;;;;;;;;;42.50;35.25;;;;;-145.45;100.00;57426.63;5061598;28;45347;-79
2022/04/28 07:36:09;;;;;;;;;44.00;34.00;;;;;-145.45;100.00;57426.63;5078291;28;45441;-77
2022/04/28 07:38:35;;;;;;;;;44.50;37.00;;;;;-145.45;100.00;57426.63;5079756;28;45402;-81
2022/04/28 07:41:01;;;;;;;;;44.50;34.75;;;;;-145.45;100.00;57426.63;5067503;27;45457;-83
2022/04/28 07:43:26;;;;;;;;;44.25;35.75;;;;;-145.45;100.00;57426.63;5072699;28;47361;-83
2022/04/28 07:45:52;;;;;;;;;45.75;38.00;;;;;-145.45;100.00;57426.63;5067861;28;45324;-81
2022/04/28 07:48:17;;;;;;;;;39.75;34.00;;;;;-145.45;100.00;57426.63;5061608;28;45465;-82
2022/04/28 07:50:42;;;;;;;;;33.00;31.00;;;;;-145.45;100.00;57426.63;5072708;28;46975;-82
2022/04/28 07:53:08;;;;;;;;;39.75;34.25;;;;;-145.45;100.00;57426.63;5072093;28;45279;-84
2022/04/28 07:55:33;;;;;;;;;38.25;32.50;;;;;-145.45;100.00;57426.63;5067745;28;45599;-83
2022/04/28 07:57:58;;;;;;;;;37.50;33.75;;;;;-145.45;100.00;57426.63;5063094;28;45268;-83
2022/04/28 08:00:24;;;;;;;;;43.25;33.75;;;;;-145.45;100.00;57426.63;5065331;28;45533;-87
2022/04/28 08:02:49;;;;;;;;;48.25;36.50;;;;;-145.45;100.00;57426.63;5060671;28;46176;-85
2022/04/28 08:05:15;;;;;;;;;38.50;32.75;;;;;-145.45;100.00;57426.63;5068165;28;45408;-85
2022/04/28 08:07:40;;;;;;;;;42.25;35.00;;;;;-145.45;100.00;57426.63;5078783;27;45314;-85
2022/04/28 08:10:06;;;;;;;;;41.00;35.50;;;;;-145.45;100.00;57426.63;5072400;27;45848;-81
2022/04/28 08:12:33;;;;;;;;;43.00;34.00;;;;;-145.45;100.00;57426.63;5074256;28;47398;-82
2022/04/28 08:14:58;;;;;;;;;39.00;33.00;;;;;-145.45;100.00;57426.63;5073157;27;45719;-82
2022/04/28 08:17:24;;;;;;;;;38.00;33.25;;;;;-145.45;100.00;57426.63;5068022;27;45305;-84
2022/04/28 08:19:49;;;;;;;;;38.25;30.00;;;;;-145.45;100.00;57426.63;5071440;28;46415;-86
2022/04/28 08:22:14;;;;;;;;;38.00;33.00;;;;;-145.45;100.00;57426.63;5068446;27;45411;-84
2022/04/28 08:24:40;;;;;;;;;39.00;35.00;;;;;-145.45;100.00;57426.63;5076998;28;45477;-85
2022/04/28 08:27:06;;;;;;;;;38.75;33.25;;;;;-145.45;100.00;57426.63;5068258;27;45320;-86
2022/04/28 08:29:31;;;;;;;;;33.75;31.50;;;;;-145.45;100.00;57426.63;5065426;28;46197;-84
2022/04/28 08:31:57;;;;;;;;;35.67;32.33;;;;;-145.45;100.00;57426.63;5068091;28;45941;-83
2022/04/28 08:34:22;;;;;;;;;40.67;34.67;;;;;-145.45;100.00;57426.63;5062599;28;45710;-82
2022/04/28 08:36:50;;;;;;;;;40.33;31.67;;;;;-145.45;100.00;57426.63;5071586;28;45196;-83
2022/04/28 08:39:16;;;;;;;;;41.33;32.33;;;;;-145.45;100.00;57426.63;5066885;27;45328;-83
2022/04/28 08:41:45;;;;;;;;;34.33;31.33;;;;;-145.45;100.00;57426.63;5074559;27;45319;-82
2022/04/28 08:44:22;;;;;;;;;33.33;30.67;;;;;-145.45;100.00;57426.63;5065677;27;45336;-83
2022/04/28 08:46:50;;;;;;;;;31.33;27.00;;;;;-145.45;100.00;57426.63;5075522;27;45452;-83
2022/04/28 08:49:17;;;;;;;;;31.00;29.67;;;;;-145.45;100.00;57426.63;5067709;28;45142;-84
2022/04/28 08:51:44;;;;;;;;;36.00;31.00;;;;;-145.45;100.00;57426.63;5082564;27;45530;-83
2022/04/28 08:54:13;;;;;;;;;38.67;30.67;;;;;-145.45;100.00;57426.63;5079005;27;45358;-82
2022/04/28 08:56:39;;;;;;;;;37.33;32.33;;;;;-145.45;100.00;57426.63;5077361;27;45372;-83
2022/04/28 08:59:06;;;;;;;;;31.67;29.33;;;;;-145.45;100.00;57426.63;5078344;27;45437;-82
2022/04/28 09:01:31;;;;;;;;;40.00;32.33;;;;;-145.45;100.00;57426.63;5073010;27;46375;-82
2022/04/28 09:03:58;;;;;;;;;31.33;29.67;;;;;-145.45;100.00;57426.63;5064206;28;45657;-82
2022/04/28 09:06:35;;;;;;;;;26.33;24.67;;;;;-145.45;100.00;57426.63;5080135;28;45433;-82
2022/04/28 09:09:04;;;;;;;;;34.67;32.33;;;;;-145.45;100.00;57426.63;5078814;28;45340;-80
2022/04/28 09:11:32;;;;;;;;;38.67;31.67;;;;;-145.45;100.00;57426.63;5076006;28;46052;-82
2022/04/28 09:14:18;;;;;;;;;29.67;28.00;;;;;-145.45;100.00;57426.63;5072479;27;45403;-81
2022/04/28 09:16:51;;;;;;;;;35.00;29.33;;;;;-145.45;100.00;57426.63;5078872;28;45421;-82
2022/04/28 09:19:36;;;;;;;;;28.67;24.00;;;;;-145.45;100.00;57426.63;5070567;27;45566;-82
2022/04/28 09:22:09;;;;;;;;;27.33;27.33;;;;;-145.45;100.00;57426.63;5069753;28;47114;-81
2022/04/28 09:24:39;;;;;;;;;36.33;30.33;;;;;-145.45;100.00;57426.63;5074877;27;45343;-81
2022/04/28 09:27:05;;;;;;;;;31.00;29.33;;;;;-145.45;100.00;57426.63;5070738;28;45338;-81
2022/04/28 09:29:36;;;;;;;;;34.33;31.67;;;;;-145.45;100.00;57426.63;5067546;27;45296;-81
2022/04/28 09:32:08;;;;;;;;;27.33;25.00;;;;;-145.45;100.00;57426.63;5070194;28;46110;-82
2022/04/28 09:34:34;;;;;;;;;28.00;27.67;;;;;-145.45;100.00;57426.63;5063676;28;45244;-82
2022/04/28 09:36:59;;;;;;;;;25.67;23.33;;;;;-145.45;100.00;57426.63;5077915;28;45517;-83
2022/04/28 09:42:33;;;;;;;;;25.33;24.00;;;;;-145.45;100.00;57426.63;5072455;28;45860;-82
2022/04/28 09:45:01;;;;;;;;;27.00;23.00;;;;;-145.45;100.00;57426.63;5070922;28;45978;-80
2022/04/28 09:47:28;;;;;;;;;27.00;26.67;;;;;-145.45;100.00;57426.63;5071266;28;45461;-81
2022/04/28 09:49:55;;;;;;;;;25.33;23.33;;;;;-145.45;100.00;57426.63;5074424;28;45493;-83
2022/04/28 09:52:23;;;;;;;;;28.00;24.67;;;;;-145.45;100.00;57426.63;5070345;27;46044;-83
2022/04/28 09:54:50;;;;;;;;;24.67;23.00;;;;;-145.45;100.00;57426.63;5071491;28;45362;-79
2022/04/28 09:57:17;;;;;;;;;25.00;21.33;;;;;-145.45;100.00;57426.63;5068351;28;45418;-79
2022/04/28 09:59:44;;;;;;;;;24.33;23.00;;;;;-145.45;100.00;57426.63;5077549;28;45391;-80
2022/04/28 10:02:13;;;;;;;;;16.00;14.33;;;;;-145.45;100.00;57426.63;5062179;27;46107;-81
2022/04/28 10:04:41;;;;;;;;;27.00;23.00;;;;;-145.45;100.00;57426.63;5072593;28;45540;-81
2022/04/28 10:07:07;;;;;;;;;25.33;23.67;;;;;-145.45;100.00;57426.63;5069256;28;45360;-81
2022/04/28 10:09:35;;;;;;;;;26.67;22.67;;;;;-145.45;100.00;57426.63;5069846;28;45438;-82
2022/04/28 10:12:01;;;;;;;;;21.00;20.33;;;;;-145.45;100.00;57426.63;5068342;28;47357;-83
2022/04/28 10:14:28;;;;;;;;;26.00;18.33;;;;;-145.45;100.00;57426.63;5069334;28;45641;-80
2022/04/28 10:16:57;;;;;;;;;22.00;20.00;;;;;-145.45;100.00;57426.63;5081575;27;45394;-79
2022/04/28 10:19:25;;;;;;;;;23.33;21.67;;;;;-145.45;100.00;57426.63;5081989;27;45414;-83
2022/04/28 10:21:58;;;;;;;;;22.33;22.00;;;;;-145.45;100.00;57426.63;5084208;27;45361;-82
2022/04/28 10:32:58;;;;;;;;;26.33;22.00;;;;;-145.45;100.00;57426.63;5068933;28;45338;-85
2022/04/28 10:35:55;;;;;;;;;17.33;16.00;;;;;-145.45;100.00;57426.63;5077279;27;45516;-85
2022/04/28 10:38:31;;;;;;;;;19.33;16.33;;;;;-145.45;100.00;57426.63;5063811;28;45434;-82
2022/04/28 10:41:02;;;;;;;;;16.67;15.00;;;;;-145.45;100.00;57426.63;5080693;28;45234;-85
2022/04/28 10:43:33;;;;;;;;;18.67;16.00;;;;;-145.45;100.00;57426.63;5086183;27;47097;-82
2022/04/28 10:46:22;;;;;;;;;14.67;13.67;;;;;-145.45;100.00;57426.63;5079424;28;45411;-79
2022/04/28 10:48:52;;;;;;;;;15.33;12.67;;;;;-145.45;100.00;57426.63;5068740;27;45461;-81
2022/04/28 10:51:21;;;;;;;;;14.00;13.67;;;;;-145.45;100.00;57426.63;5075470;28;45903;-82
2022/04/28 10:54:16;;;;;;;;;12.00;12.00;;;;;-145.45;100.00;57426.63;5066627;28;47454;-82
2022/04/28 10:56:42;;;;;;;;;12.33;11.00;;;;;-145.45;100.00;57426.63;5082373;28;45285;-82
2022/04/28 10:59:34;;;;;;;;;14.67;11.33;;;;;-145.45;100.00;57426.63;5082538;28;45438;-84
2022/04/28 11:02:13;;;;;;;;;9.33;8.33;;;;;-145.45;100.00;57426.63;5076132;27;45417;-84
2022/04/28 11:04:41;;;;;;;;;14.00;12.00;;;;;-145.45;100.00;57426.63;5070883;28;46951;-82
2022/04/28 11:07:09;;;;;;;;;13.33;12.33;;;;;-145.45;100.00;57426.63;5076929;28;45224;-84
2022/04/28 11:09:42;;;;;;;;;12.33;10.33;;;;;-145.45;100.00;57426.63;5076668;28;45437;-86
2022/04/28 11:12:12;;;;;;;;;11.67;11.67;;;;;-145.45;100.00;57426.63;5075667;28;45367;-83
2022/04/28 11:14:48;;;;;;;;;11.67;11.67;;;;;-145.45;100.00;57426.63;5075867;28;47150;-80
2022/04/28 11:17:16;;;;;;;;;11.00;9.67;;;;;-145.45;100.00;57426.63;5075616;27;45227;-84
2022/04/28 11:19:43;;;;;;;;;10.33;9.67;;;;;-145.45;100.00;57426.63;5071933;27;45248;-80